sensor_id;sensor_type;location;lat;lon;timestamp;P1;durP1;ratioP1;P2;durP2;ratioP2
75912;SDS011;64592;52.168;21.040;2023-08-20T00:01:51;20.60;;;17.00;;
75912;SDS011;64592;52.168;21.040;2023-08-20T00:06:59;20.33;;;16.20;;
75912;SDS011;64592;52.168;21.040;2023-08-20T00:12:01;18.95;;;15.70;;
75912;SDS011;64592;52.168;21.040;2023-08-20T00:17:04;19.73;;;17.15;;
75912;SDS011;64592;52.168;21.040;2023-08-20T00:22:08;19.00;;;15.15;;
75912;SDS011;64592;52.168;21.040;2023-08-20T00:27:10;22.85;;;16.20;;
75912;SDS011;64592;52.168;21.040;2023-08-20T00:32:11;18.30;;;14.82;;
75912;SDS011;64592;52.168;21.040;2023-08-20T00:37:15;22.77;;;17.92;;
75912;SDS011;64592;52.168;21.040;2023-08-20T00:42:17;20.08;;;15.93;;
75912;SDS011;64592;52.168;21.040;2023-08-20T00:47:18;19.40;;;17.08;;
75912;SDS011;64592;52.168;21.040;2023-08-20T00:52:22;19.67;;;16.90;;
75912;SDS011;64592;52.168;21.040;2023-08-20T00:57:24;21.40;;;16.27;;
75912;SDS011;64592;52.168;21.040;2023-08-20T01:02:27;23.08;;;20.13;;
75912;SDS011;64592;52.168;21.040;2023-08-20T01:07:32;18.83;;;15.95;;
75912;SDS011;64592;52.168;21.040;2023-08-20T01:12:43;20.77;;;16.35;;
75912;SDS011;64592;52.168;21.040;2023-08-20T01:17:45;19.92;;;17.83;;
75912;SDS011;64592;52.168;21.040;2023-08-20T01:28:25;23.08;;;16.73;;
75912;SDS011;64592;52.168;21.040;2023-08-20T01:33:28;20.65;;;16.77;;
75912;SDS011;64592;52.168;21.040;2023-08-20T01:38:31;19.48;;;16.63;;
75912;SDS011;64592;52.168;21.040;2023-08-20T01:43:34;20.23;;;15.98;;
75912;SDS011;64592;52.168;21.040;2023-08-20T01:48:36;20.05;;;16.27;;
75912;SDS011;64592;52.168;21.040;2023-08-20T01:53:37;22.38;;;16.95;;
75912;SDS011;64592;52.168;21.040;2023-08-20T01:58:40;19.63;;;14.73;;
75912;SDS011;64592;52.168;21.040;2023-08-20T02:03:42;18.13;;;15.35;;
75912;SDS011;64592;52.168;21.040;2023-08-20T02:08:43;18.67;;;16.25;;
75912;SDS011;64592;52.168;21.040;2023-08-20T02:13:46;19.35;;;17.35;;
75912;SDS011;64592;52.168;21.040;2023-08-20T02:18:48;18.85;;;14.77;;
75912;SDS011;64592;52.168;21.040;2023-08-20T02:23:50;22.23;;;17.33;;
75912;SDS011;64592;52.168;21.040;2023-08-20T02:28:53;18.48;;;15.35;;
75912;SDS011;64592;52.168;21.040;2023-08-20T02:33:54;22.45;;;16.48;;
75912;SDS011;64592;52.168;21.040;2023-08-20T02:38:56;17.38;;;14.00;;
75912;SDS011;64592;52.168;21.040;2023-08-20T02:43:59;16.55;;;14.40;;
75912;SDS011;64592;52.168;21.040;2023-08-20T02:49:01;22.45;;;17.52;;
75912;SDS011;64592;52.168;21.040;2023-08-20T02:54:02;22.80;;;16.77;;
75912;SDS011;64592;52.168;21.040;2023-08-20T02:59:06;20.02;;;17.25;;
75912;SDS011;64592;52.168;21.040;2023-08-20T03:04:07;24.85;;;18.92;;
75912;SDS011;64592;52.168;21.040;2023-08-20T03:09:10;24.75;;;20.52;;
75912;SDS011;64592;52.168;21.040;2023-08-20T03:14:13;22.00;;;19.05;;
75912;SDS011;64592;52.168;21.040;2023-08-20T03:19:15;24.27;;;18.35;;
75912;SDS011;64592;52.168;21.040;2023-08-20T03:24:17;23.55;;;18.85;;
75912;SDS011;64592;52.168;21.040;2023-08-20T03:29:20;20.92;;;17.85;;
75912;SDS011;64592;52.168;21.040;2023-08-20T03:34:21;21.92;;;17.73;;
75912;SDS011;64592;52.168;21.040;2023-08-20T03:39:23;23.13;;;18.73;;
75912;SDS011;64592;52.168;21.040;2023-08-20T03:44:26;22.95;;;18.35;;
75912;SDS011;64592;52.168;21.040;2023-08-20T03:49:29;20.80;;;18.27;;
75912;SDS011;64592;52.168;21.040;2023-08-20T03:54:31;26.38;;;19.10;;
75912;SDS011;64592;52.168;21.040;2023-08-20T03:59:34;22.27;;;18.20;;
75912;SDS011;64592;52.168;21.040;2023-08-20T04:04:35;21.58;;;19.02;;
75912;SDS011;64592;52.168;21.040;2023-08-20T04:09:37;21.95;;;18.80;;
75912;SDS011;64592;52.168;21.040;2023-08-20T04:14:41;24.30;;;20.17;;
75912;SDS011;64592;52.168;21.040;2023-08-20T04:19:42;24.52;;;20.30;;
75912;SDS011;64592;52.168;21.040;2023-08-20T04:24:44;24.38;;;19.92;;
75912;SDS011;64592;52.168;21.040;2023-08-20T04:29:47;23.85;;;20.67;;
75912;SDS011;64592;52.168;21.040;2023-08-20T04:34:49;22.15;;;17.40;;
75912;SDS011;64592;52.168;21.040;2023-08-20T04:39:52;23.88;;;20.52;;
75912;SDS011;64592;52.168;21.040;2023-08-20T04:44:55;22.98;;;20.50;;
75912;SDS011;64592;52.168;21.040;2023-08-20T04:49:56;26.83;;;21.88;;
75912;SDS011;64592;52.168;21.040;2023-08-20T04:54:58;25.30;;;21.38;;
75912;SDS011;64592;52.168;21.040;2023-08-20T05:00:01;26.33;;;21.65;;
75912;SDS011;64592;52.168;21.040;2023-08-20T05:05:04;26.02;;;20.23;;
75912;SDS011;64592;52.168;21.040;2023-08-20T05:10:06;26.10;;;19.27;;
75912;SDS011;64592;52.168;21.040;2023-08-20T05:15:10;25.55;;;21.98;;
75912;SDS011;64592;52.168;21.040;2023-08-20T05:20:12;27.38;;;21.95;;
75912;SDS011;64592;52.168;21.040;2023-08-20T05:25:14;24.67;;;21.88;;
75912;SDS011;64592;52.168;21.040;2023-08-20T05:30:17;23.15;;;18.40;;
75912;SDS011;64592;52.168;21.040;2023-08-20T05:35:19;23.17;;;20.15;;
75912;SDS011;64592;52.168;21.040;2023-08-20T05:40:20;25.20;;;22.33;;
75912;SDS011;64592;52.168;21.040;2023-08-20T05:45:23;24.45;;;20.55;;
75912;SDS011;64592;52.168;21.040;2023-08-20T05:50:25;26.10;;;22.92;;
75912;SDS011;64592;52.168;21.040;2023-08-20T05:55:26;21.55;;;18.48;;
75912;SDS011;64592;52.168;21.040;2023-08-20T06:00:29;20.45;;;17.98;;
75912;SDS011;64592;52.168;21.040;2023-08-20T06:05:31;22.05;;;18.88;;
75912;SDS011;64592;52.168;21.040;2023-08-20T06:10:33;27.33;;;19.85;;
75912;SDS011;64592;52.168;21.040;2023-08-20T06:15:36;22.90;;;19.77;;
75912;SDS011;64592;52.168;21.040;2023-08-20T06:20:37;22.13;;;19.05;;
75912;SDS011;64592;52.168;21.040;2023-08-20T06:25:39;21.40;;;19.15;;
75912;SDS011;64592;52.168;21.040;2023-08-20T06:30:42;20.60;;;18.13;;
75912;SDS011;64592;52.168;21.040;2023-08-20T06:35:44;23.55;;;19.10;;
75912;SDS011;64592;52.168;21.040;2023-08-20T06:40:47;18.80;;;16.80;;
75912;SDS011;64592;52.168;21.040;2023-08-20T06:45:50;25.73;;;20.13;;
75912;SDS011;64592;52.168;21.040;2023-08-20T06:50:52;20.80;;;18.60;;
75912;SDS011;64592;52.168;21.040;2023-08-20T06:55:54;19.85;;;17.80;;
75912;SDS011;64592;52.168;21.040;2023-08-20T07:00:57;21.67;;;18.65;;
75912;SDS011;64592;52.168;21.040;2023-08-20T07:11:09;19.23;;;16.10;;
75912;SDS011;64592;52.168;21.040;2023-08-20T07:16:12;18.65;;;16.08;;
75912;SDS011;64592;52.168;21.040;2023-08-20T07:21:14;20.67;;;16.55;;
75912;SDS011;64592;52.168;21.040;2023-08-20T07:26:16;18.08;;;15.70;;
75912;SDS011;64592;52.168;21.040;2023-08-20T07:31:19;18.98;;;15.38;;
75912;SDS011;64592;52.168;21.040;2023-08-20T07:36:21;17.88;;;16.08;;
75912;SDS011;64592;52.168;21.040;2023-08-20T07:41:23;16.67;;;14.88;;
75912;SDS011;64592;52.168;21.040;2023-08-20T07:46:26;17.67;;;15.77;;
75912;SDS011;64592;52.168;21.040;2023-08-20T07:51:28;18.55;;;16.65;;
75912;SDS011;64592;52.168;21.040;2023-08-20T07:56:30;21.23;;;15.10;;
75912;SDS011;64592;52.168;21.040;2023-08-20T08:01:32;17.75;;;15.93;;
75912;SDS011;64592;52.168;21.040;2023-08-20T08:06:34;15.75;;;13.13;;
75912;SDS011;64592;52.168;21.040;2023-08-20T08:11:36;14.75;;;13.15;;
75912;SDS011;64592;52.168;21.040;2023-08-20T08:16:39;16.08;;;14.48;;
75912;SDS011;64592;52.168;21.040;2023-08-20T08:21:41;16.98;;;14.70;;
75912;SDS011;64592;52.168;21.040;2023-08-20T08:26:43;18.15;;;16.13;;
75912;SDS011;64592;52.168;21.040;2023-08-20T08:31:46;14.55;;;12.70;;
75912;SDS011;64592;52.168;21.040;2023-08-20T08:36:47;18.55;;;15.85;;
75912;SDS011;64592;52.168;21.040;2023-08-20T08:41:49;15.75;;;14.15;;
75912;SDS011;64592;52.168;21.040;2023-08-20T08:46:55;14.80;;;13.25;;
75912;SDS011;64592;52.168;21.040;2023-08-20T08:51:58;16.50;;;13.40;;
75912;SDS011;64592;52.168;21.040;2023-08-20T08:57:00;18.70;;;13.55;;
75912;SDS011;64592;52.168;21.040;2023-08-20T09:02:05;13.23;;;11.68;;
75912;SDS011;64592;52.168;21.040;2023-08-20T09:07:11;15.73;;;14.18;;
75912;SDS011;64592;52.168;21.040;2023-08-20T09:12:13;13.80;;;12.40;;
75912;SDS011;64592;52.168;21.040;2023-08-20T09:17:17;15.10;;;13.55;;
75912;SDS011;64592;52.168;21.040;2023-08-20T09:22:21;14.73;;;13.23;;
75912;SDS011;64592;52.168;21.040;2023-08-20T09:27:23;14.15;;;12.73;;
75912;SDS011;64592;52.168;21.040;2023-08-20T09:32:28;13.35;;;12.05;;
75912;SDS011;64592;52.168;21.040;2023-08-20T09:42:33;12.38;;;11.13;;
75912;SDS011;64592;52.168;21.040;2023-08-20T09:47:36;13.80;;;11.50;;
75912;SDS011;64592;52.168;21.040;2023-08-20T09:52:39;12.27;;;11.07;;
75912;SDS011;64592;52.168;21.040;2023-08-20T09:57:45;17.63;;;11.07;;
75912;SDS011;64592;52.168;21.040;2023-08-20T10:02:50;13.32;;;11.93;;
75912;SDS011;64592;52.168;21.040;2023-08-20T10:07:54;12.20;;;10.93;;
75912;SDS011;64592;52.168;21.040;2023-08-20T10:12:57;12.40;;;11.15;;
75912;SDS011;64592;52.168;21.040;2023-08-20T10:18:00;13.10;;;11.85;;
75912;SDS011;64592;52.168;21.040;2023-08-20T10:23:02;13.73;;;11.35;;
75912;SDS011;64592;52.168;21.040;2023-08-20T10:28:11;13.23;;;11.43;;
75912;SDS011;64592;52.168;21.040;2023-08-20T10:38:18;12.82;;;11.52;;
75912;SDS011;64592;52.168;21.040;2023-08-20T10:43:26;13.40;;;11.35;;
75912;SDS011;64592;52.168;21.040;2023-08-20T10:48:33;12.73;;;11.45;;
75912;SDS011;64592;52.168;21.040;2023-08-20T10:58:38;13.80;;;11.38;;
75912;SDS011;64592;52.168;21.040;2023-08-20T11:03:44;12.68;;;11.35;;
75912;SDS011;64592;52.168;21.040;2023-08-20T11:08:46;13.38;;;12.07;;
75912;SDS011;64592;52.168;21.040;2023-08-20T11:13:48;13.18;;;11.77;;
75912;SDS011;64592;52.168;21.040;2023-08-20T11:18:52;12.75;;;10.98;;
75912;SDS011;64592;52.168;21.040;2023-08-20T11:23:54;12.80;;;11.55;;
75912;SDS011;64592;52.168;21.040;2023-08-20T11:28:56;13.68;;;12.40;;
75912;SDS011;64592;52.168;21.040;2023-08-20T11:33:59;13.02;;;11.80;;
75912;SDS011;64592;52.168;21.040;2023-08-20T11:39:02;11.73;;;10.50;;
75912;SDS011;64592;52.168;21.040;2023-08-20T11:44:04;14.13;;;12.20;;
75912;SDS011;64592;52.168;21.040;2023-08-20T11:49:08;14.23;;;12.77;;
75912;SDS011;64592;52.168;21.040;2023-08-20T11:54:11;12.07;;;10.88;;
75912;SDS011;64592;52.168;21.040;2023-08-20T11:59:15;13.98;;;12.65;;
75912;SDS011;64592;52.168;21.040;2023-08-20T12:04:19;14.98;;;13.57;;
75912;SDS011;64592;52.168;21.040;2023-08-20T12:09:25;15.32;;;12.88;;
75912;SDS011;64592;52.168;21.040;2023-08-20T12:14:27;14.05;;;12.23;;
75912;SDS011;64592;52.168;21.040;2023-08-20T12:19:30;14.55;;;13.15;;
75912;SDS011;64592;52.168;21.040;2023-08-20T12:24:31;12.88;;;11.60;;
75912;SDS011;64592;52.168;21.040;2023-08-20T12:29:33;13.77;;;12.40;;
75912;SDS011;64592;52.168;21.040;2023-08-20T12:34:36;13.63;;;12.25;;
75912;SDS011;64592;52.168;21.040;2023-08-20T12:39:38;12.90;;;11.70;;
75912;SDS011;64592;52.168;21.040;2023-08-20T12:44:40;12.65;;;11.45;;
75912;SDS011;64592;52.168;21.040;2023-08-20T12:49:43;11.98;;;10.77;;
75912;SDS011;64592;52.168;21.040;2023-08-20T12:54:45;14.15;;;12.60;;
75912;SDS011;64592;52.168;21.040;2023-08-20T12:59:46;12.95;;;11.65;;
75912;SDS011;64592;52.168;21.040;2023-08-20T13:04:50;12.68;;;11.52;;
75912;SDS011;64592;52.168;21.040;2023-08-20T13:09:52;14.50;;;13.13;;
75912;SDS011;64592;52.168;21.040;2023-08-20T13:14:54;12.48;;;11.07;;
75912;SDS011;64592;52.168;21.040;2023-08-20T13:19:58;12.00;;;10.93;;
75912;SDS011;64592;52.168;21.040;2023-08-20T13:24:59;14.48;;;12.13;;
75912;SDS011;64592;52.168;21.040;2023-08-20T13:30:01;13.27;;;11.70;;
75912;SDS011;64592;52.168;21.040;2023-08-20T13:35:04;13.82;;;10.77;;
75912;SDS011;64592;52.168;21.040;2023-08-20T13:40:08;12.20;;;11.10;;
75912;SDS011;64592;52.168;21.040;2023-08-20T13:45:10;13.30;;;12.10;;
75912;SDS011;64592;52.168;21.040;2023-08-20T13:50:13;12.52;;;11.35;;
75912;SDS011;64592;52.168;21.040;2023-08-20T13:55:15;12.50;;;11.20;;
75912;SDS011;64592;52.168;21.040;2023-08-20T14:00:17;12.65;;;11.45;;
75912;SDS011;64592;52.168;21.040;2023-08-20T14:05:20;12.73;;;11.55;;
75912;SDS011;64592;52.168;21.040;2023-08-20T14:10:22;12.45;;;11.15;;
75912;SDS011;64592;52.168;21.040;2023-08-20T14:15:23;11.80;;;10.15;;
75912;SDS011;64592;52.168;21.040;2023-08-20T14:20:27;13.57;;;11.63;;
75912;SDS011;64592;52.168;21.040;2023-08-20T14:25:28;12.65;;;11.45;;
75912;SDS011;64592;52.168;21.040;2023-08-20T14:30:30;12.25;;;10.98;;
75912;SDS011;64592;52.168;21.040;2023-08-20T14:35:33;13.68;;;12.27;;
75912;SDS011;64592;52.168;21.040;2023-08-20T14:40:36;12.77;;;11.57;;
75912;SDS011;64592;52.168;21.040;2023-08-20T14:45:39;12.55;;;11.25;;
75912;SDS011;64592;52.168;21.040;2023-08-20T14:50:42;12.65;;;11.45;;
75912;SDS011;64592;52.168;21.040;2023-08-20T14:55:44;13.52;;;12.27;;
75912;SDS011;64592;52.168;21.040;2023-08-20T15:00:45;12.02;;;10.77;;
75912;SDS011;64592;52.168;21.040;2023-08-20T15:05:51;10.77;;;9.68;;
75912;SDS011;64592;52.168;21.040;2023-08-20T15:10:55;11.35;;;10.27;;
75912;SDS011;64592;52.168;21.040;2023-08-20T15:15:58;11.35;;;9.98;;
75912;SDS011;64592;52.168;21.040;2023-08-20T15:21:01;10.93;;;9.93;;
75912;SDS011;64592;52.168;21.040;2023-08-20T15:26:04;12.32;;;10.40;;
75912;SDS011;64592;52.168;21.040;2023-08-20T15:31:05;12.32;;;9.15;;
75912;SDS011;64592;52.168;21.040;2023-08-20T15:36:08;11.43;;;10.23;;
75912;SDS011;64592;52.168;21.040;2023-08-20T15:41:10;11.77;;;10.50;;
75912;SDS011;64592;52.168;21.040;2023-08-20T15:46:12;11.75;;;10.52;;
75912;SDS011;64592;52.168;21.040;2023-08-20T15:51:15;10.63;;;9.55;;
75912;SDS011;64592;52.168;21.040;2023-08-20T15:56:16;11.02;;;9.93;;
75912;SDS011;64592;52.168;21.040;2023-08-20T16:01:18;14.05;;;10.65;;
75912;SDS011;64592;52.168;21.040;2023-08-20T16:06:21;11.20;;;10.10;;
75912;SDS011;64592;52.168;21.040;2023-08-20T16:11:23;12.30;;;10.63;;
75912;SDS011;64592;52.168;21.040;2023-08-20T16:16:24;9.90;;;8.82;;
75912;SDS011;64592;52.168;21.040;2023-08-20T16:21:27;11.55;;;10.35;;
75912;SDS011;64592;52.168;21.040;2023-08-20T16:26:30;11.13;;;9.65;;
75912;SDS011;64592;52.168;21.040;2023-08-20T16:31:32;12.57;;;10.25;;
75912;SDS011;64592;52.168;21.040;2023-08-20T16:36:35;11.00;;;9.98;;
75912;SDS011;64592;52.168;21.040;2023-08-20T16:41:37;12.05;;;9.65;;
75912;SDS011;64592;52.168;21.040;2023-08-20T16:46:39;11.00;;;9.88;;
75912;SDS011;64592;52.168;21.040;2023-08-20T16:51:42;10.15;;;9.15;;
75912;SDS011;64592;52.168;21.040;2023-08-20T16:56:43;10.52;;;9.32;;
75912;SDS011;64592;52.168;21.040;2023-08-20T17:01:45;11.23;;;10.13;;
75912;SDS011;64592;52.168;21.040;2023-08-20T17:06:48;10.48;;;9.43;;
75912;SDS011;64592;52.168;21.040;2023-08-20T17:11:50;12.10;;;9.15;;
75912;SDS011;64592;52.168;21.040;2023-08-20T17:16:52;10.65;;;9.15;;
75912;SDS011;64592;52.168;21.040;2023-08-20T17:21:55;11.27;;;10.15;;
75912;SDS011;64592;52.168;21.040;2023-08-20T17:26:56;9.88;;;8.98;;
75912;SDS011;64592;52.168;21.040;2023-08-20T17:31:58;11.23;;;10.13;;
75912;SDS011;64592;52.168;21.040;2023-08-20T17:37:01;11.02;;;9.88;;
75912;SDS011;64592;52.168;21.040;2023-08-20T17:42:03;10.70;;;9.65;;
75912;SDS011;64592;52.168;21.040;2023-08-20T17:47:05;9.82;;;8.82;;
75912;SDS011;64592;52.168;21.040;2023-08-20T17:52:08;14.80;;;9.52;;
75912;SDS011;64592;52.168;21.040;2023-08-20T17:57:10;10.90;;;9.75;;
75912;SDS011;64592;52.168;21.040;2023-08-20T18:02:12;10.07;;;8.93;;
75912;SDS011;64592;52.168;21.040;2023-08-20T18:07:15;13.25;;;10.02;;
75912;SDS011;64592;52.168;21.040;2023-08-20T18:12:18;11.35;;;9.45;;
75912;SDS011;64592;52.168;21.040;2023-08-20T18:17:20;12.88;;;9.88;;
75912;SDS011;64592;52.168;21.040;2023-08-20T18:22:23;13.43;;;10.00;;
75912;SDS011;64592;52.168;21.040;2023-08-20T18:27:24;11.70;;;9.57;;
75912;SDS011;64592;52.168;21.040;2023-08-20T18:32:26;12.13;;;10.82;;
75912;SDS011;64592;52.168;21.040;2023-08-20T18:37:29;13.73;;;11.02;;
75912;SDS011;64592;52.168;21.040;2023-08-20T18:42:31;11.68;;;10.15;;
75912;SDS011;64592;52.168;21.040;2023-08-20T18:47:33;12.23;;;9.93;;
75912;SDS011;64592;52.168;21.040;2023-08-20T18:52:36;12.93;;;10.68;;
75912;SDS011;64592;52.168;21.040;2023-08-20T18:57:37;13.25;;;11.20;;
75912;SDS011;64592;52.168;21.040;2023-08-20T19:02:39;17.52;;;11.50;;
75912;SDS011;64592;52.168;21.040;2023-08-20T19:07:42;13.68;;;11.32;;
75912;SDS011;64592;52.168;21.040;2023-08-20T19:12:47;11.52;;;10.32;;
75912;SDS011;64592;52.168;21.040;2023-08-20T19:17:49;11.82;;;10.63;;
75912;SDS011;64592;52.168;21.040;2023-08-20T19:22:52;11.82;;;10.65;;
75912;SDS011;64592;52.168;21.040;2023-08-20T19:27:54;10.90;;;9.52;;
75912;SDS011;64592;52.168;21.040;2023-08-20T19:32:56;12.35;;;11.05;;
75912;SDS011;64592;52.168;21.040;2023-08-20T19:37:59;12.65;;;11.27;;
75912;SDS011;64592;52.168;21.040;2023-08-20T19:43:01;13.80;;;12.23;;
75912;SDS011;64592;52.168;21.040;2023-08-20T19:48:03;15.48;;;12.27;;
75912;SDS011;64592;52.168;21.040;2023-08-20T19:53:07;16.40;;;11.68;;
75912;SDS011;64592;52.168;21.040;2023-08-20T19:58:09;13.40;;;12.02;;
75912;SDS011;64592;52.168;21.040;2023-08-20T20:03:10;14.82;;;11.65;;
75912;SDS011;64592;52.168;21.040;2023-08-20T20:08:13;15.55;;;12.35;;
75912;SDS011;64592;52.168;21.040;2023-08-20T20:13:15;15.05;;;12.57;;
75912;SDS011;64592;52.168;21.040;2023-08-20T20:18:16;15.27;;;13.27;;
75912;SDS011;64592;52.168;21.040;2023-08-20T20:23:20;14.60;;;12.45;;
75912;SDS011;64592;52.168;21.040;2023-08-20T20:28:21;16.02;;;13.68;;
75912;SDS011;64592;52.168;21.040;2023-08-20T20:33:23;15.82;;;14.13;;
75912;SDS011;64592;52.168;21.040;2023-08-20T20:38:26;17.63;;;12.02;;
75912;SDS011;64592;52.168;21.040;2023-08-20T20:43:28;18.50;;;14.43;;
75912;SDS011;64592;52.168;21.040;2023-08-20T20:48:30;18.92;;;14.35;;
75912;SDS011;64592;52.168;21.040;2023-08-20T20:53:33;19.48;;;14.82;;
75912;SDS011;64592;52.168;21.040;2023-08-20T20:58:34;17.95;;;15.07;;
75912;SDS011;64592;52.168;21.040;2023-08-20T21:03:36;18.02;;;15.45;;
75912;SDS011;64592;52.168;21.040;2023-08-20T21:08:39;16.58;;;14.88;;
75912;SDS011;64592;52.168;21.040;2023-08-20T21:13:41;18.55;;;16.17;;
75912;SDS011;64592;52.168;21.040;2023-08-20T21:18:43;20.13;;;15.15;;
75912;SDS011;64592;52.168;21.040;2023-08-20T21:23:46;18.25;;;13.57;;
75912;SDS011;64592;52.168;21.040;2023-08-20T21:28:48;15.85;;;14.10;;
75912;SDS011;64592;52.168;21.040;2023-08-20T21:33:49;16.77;;;14.23;;
75912;SDS011;64592;52.168;21.040;2023-08-20T21:38:53;17.08;;;14.27;;
75912;SDS011;64592;52.168;21.040;2023-08-20T21:43:55;16.25;;;14.48;;
75912;SDS011;64592;52.168;21.040;2023-08-20T21:48:56;18.15;;;14.70;;
75912;SDS011;64592;52.168;21.040;2023-08-20T21:53:59;17.05;;;15.07;;
75912;SDS011;64592;52.168;21.040;2023-08-20T21:59:02;18.02;;;15.75;;
75912;SDS011;64592;52.168;21.040;2023-08-20T22:04:04;19.42;;;16.30;;
75912;SDS011;64592;52.168;21.040;2023-08-20T22:09:07;16.75;;;14.20;;
75912;SDS011;64592;52.168;21.040;2023-08-20T22:14:10;21.70;;;15.18;;
75912;SDS011;64592;52.168;21.040;2023-08-20T22:19:12;17.95;;;14.15;;
75912;SDS011;64592;52.168;21.040;2023-08-20T22:24:16;18.23;;;14.38;;
75912;SDS011;64592;52.168;21.040;2023-08-20T22:29:19;17.10;;;15.13;;
75912;SDS011;64592;52.168;21.040;2023-08-20T22:34:22;16.35;;;14.38;;
75912;SDS011;64592;52.168;21.040;2023-08-20T22:39:25;16.60;;;14.75;;
75912;SDS011;64592;52.168;21.040;2023-08-20T22:44:27;19.10;;;14.90;;
75912;SDS011;64592;52.168;21.040;2023-08-20T22:49:28;17.13;;;15.38;;
75912;SDS011;64592;52.168;21.040;2023-08-20T22:54:31;18.15;;;15.48;;
75912;SDS011;64592;52.168;21.040;2023-08-20T22:59:33;16.98;;;14.45;;
75912;SDS011;64592;52.168;21.040;2023-08-20T23:04:34;24.23;;;14.95;;
75912;SDS011;64592;52.168;21.040;2023-08-20T23:09:37;17.10;;;15.38;;
75912;SDS011;64592;52.168;21.040;2023-08-20T23:14:39;16.90;;;13.88;;
75912;SDS011;64592;52.168;21.040;2023-08-20T23:19:41;19.00;;;16.13;;
75912;SDS011;64592;52.168;21.040;2023-08-20T23:24:44;17.13;;;14.57;;
75912;SDS011;64592;52.168;21.040;2023-08-20T23:29:46;16.92;;;14.52;;
75912;SDS011;64592;52.168;21.040;2023-08-20T23:34:48;17.70;;;14.75;;
75912;SDS011;64592;52.168;21.040;2023-08-20T23:39:51;18.70;;;15.60;;
75912;SDS011;64592;52.168;21.040;2023-08-20T23:44:53;19.90;;;15.55;;
75912;SDS011;64592;52.168;21.040;2023-08-20T23:49:55;17.05;;;14.75;;
75912;SDS011;64592;52.168;21.040;2023-08-20T23:54:58;15.23;;;13.65;;
75912;SDS011;64592;52.168;21.040;2023-08-20T23:59:59;16.95;;;13.88;;
